KFFT/FFT METAR and TAF weather

Enter ICAO airport designator
Station Type Date Time Source
KFFT METAR 2022/01/26 07:53 UTC NOAA

KFFT 260753Z AUTO 34007KT 10SM CLR M08/M14 A3038 RMK AO2 SLP298 T10831144


Station Type Date Time Source
KFFT Decoded METAR 2022/01/26 07:53 UTC NOAA

FRANKFORT CAPITAL CITY AIRPORT , KY, United States (KFFT) 38-11N 84-54W 236M
Jan 26, 2022 - 02:53 AM EST / 2022.01.26 0753 UTC
Wind: from the NNW (340 degrees) at 8 MPH (7 KT):0
Visibility: 10 mile(s):0
Sky conditions: clear
Temperature: 17.1 F (-8.3 C)
Windchill: 6 F (-14 C):1
Dew Point: 6.1 F (-14.4 C)
Relative Humidity: 61%
Pressure (altimeter): 30.38 in. Hg (1028 hPa)
ob: KFFT 260753Z AUTO 34007KT 10SM CLR M08/M14 A3038 RMK AO2 SLP298 T10831144
cycle: 8

Station Type Date Time Source
KFFT TAF UTC NOAA

Error!

Example: see airport list